Time;durP1;ratioP1;P1;durP2;ratioP2;P2;SDS_P1;SDS_P2;PMS_P1;PMS_P2;Temp;Humidity;BMP_temperature;BMP_pressure;BME280_temperature;BME280_humidity;BME280_pressure;Samples;Min_cycle;Max_cycle;Signal;HPM_P1;HPM_P2
2024/01/24 00:01:08;;;;;;;8.57;1.85;;;;;;;10.68;100.00;101278.59;5092580;28;20079;-84
2024/01/24 00:03:33;;;;;;;10.38;2.08;;;;;;;10.66;100.00;101231.78;5093468;28;20028;-83
2024/01/24 00:05:58;;;;;;;12.48;2.03;;;;;;;10.62;100.00;101246.34;5092788;28;20105;-87
2024/01/24 00:08:24;;;;;;;6.60;1.90;;;;;;;10.63;100.00;101282.59;5092330;28;20476;-84
2024/01/24 00:10:49;;;;;;;14.77;2.33;;;;;;;10.59;100.00;101240.28;5074778;28;20093;-84
2024/01/24 00:13:15;;;;;;;13.50;2.22;;;;;;;10.58;100.00;101285.66;5093084;28;20081;-83
2024/01/24 00:15:40;;;;;;;22.67;2.20;;;;;;;10.58;100.00;101290.97;5075048;28;20447;-84
2024/01/24 00:18:06;;;;;;;18.75;2.30;;;;;;;10.58;100.00;101289.19;5092996;28;20138;-84
2024/01/24 00:20:31;;;;;;;9.07;1.70;;;;;;;10.56;100.00;101306.22;5092824;28;20404;-85
2024/01/24 00:22:56;;;;;;;11.70;2.13;;;;;;;10.56;100.00;101264.50;5092637;28;20028;-85
2024/01/24 00:25:22;;;;;;;13.80;2.60;;;;;;;10.56;100.00;101267.16;5092489;28;20166;-85
2024/01/24 00:27:47;;;;;;;10.68;2.00;;;;;;;10.55;100.00;101312.53;5075484;28;20052;-85
2024/01/24 00:30:12;;;;;;;15.93;2.40;;;;;;;10.45;100.00;101323.09;5092607;28;20028;-84
2024/01/24 00:32:38;;;;;;;16.27;3.03;;;;;;;10.41;100.00;101337.63;5093041;28;20043;-84
2024/01/24 00:35:04;;;;;;;11.65;2.50;;;;;;;10.35;100.00;101291.06;5092659;28;20059;-84
2024/01/24 00:37:29;;;;;;;20.95;2.50;;;;;;;10.35;100.00;101324.81;5074461;28;20039;-84
2024/01/24 00:39:55;;;;;;;15.52;2.80;;;;;;;10.32;100.00;101295.78;5093121;28;20028;-85
2024/01/24 00:42:20;;;;;;;17.77;2.80;;;;;;;10.31;100.00;101326.00;5093151;28;20281;-84
2024/01/24 00:44:48;;;;;;;19.77;2.85;;;;;;;10.30;100.00;101292.38;5074345;28;20035;-84
2024/01/24 00:47:13;;;;;;;16.08;2.83;;;;;;;10.27;100.00;101300.63;5092311;28;20020;-86
2024/01/24 00:49:38;;;;;;;17.65;3.20;;;;;;;10.28;100.00;101289.00;5092422;28;20039;-85
2024/01/24 00:52:04;;;;;;;24.13;3.35;;;;;;;10.24;100.00;101291.94;5092912;28;20440;-85
2024/01/24 00:54:29;;;;;;;16.70;2.80;;;;;;;10.19;100.00;101320.69;5074291;28;20024;-84
2024/01/24 00:56:54;;;;;;;13.13;2.33;;;;;;;10.08;100.00;101286.19;5074121;28;20036;-84
2024/01/24 00:59:20;;;;;;;19.23;2.83;;;;;;;10.00;100.00;101272.66;5092116;28;20094;-83
2024/01/24 01:01:45;;;;;;;16.58;3.10;;;;;;;9.93;100.00;101292.72;5092240;28;20031;-85
2024/01/24 01:04:10;;;;;;;16.55;2.72;;;;;;;9.86;100.00;101284.41;5092446;28;20189;-86
2024/01/24 01:06:36;;;;;;;15.98;3.25;;;;;;;9.86;100.00;101276.44;5092685;28;20028;-83
2024/01/24 01:09:02;;;;;;;17.20;2.55;;;;;;;9.84;100.00;101270.41;5092765;28;20386;-84
2024/01/24 01:11:27;;;;;;;12.35;2.58;;;;;;;9.79;100.00;101293.84;5092431;28;20480;-86
2024/01/24 01:13:53;;;;;;;19.38;3.28;;;;;;;9.79;100.00;101286.72;5092422;28;20058;-85
2024/01/24 01:16:18;;;;;;;14.90;2.67;;;;;;;9.78;100.00;101297.44;5092341;28;20036;-85
2024/01/24 01:18:43;;;;;;;23.70;3.53;;;;;;;9.82;100.00;101298.91;5092176;28;20028;-83
2024/01/24 01:21:09;;;;;;;17.15;3.00;;;;;;;9.83;100.00;101282.84;5092235;28;20032;-83
2024/01/24 01:23:34;;;;;;;22.85;3.95;;;;;;;9.84;100.00;101284.53;5074215;28;20043;-84
2024/01/24 01:25:59;;;;;;;17.20;2.55;;;;;;;9.82;100.00;101280.31;5092242;28;20028;-84
2024/01/24 01:28:25;;;;;;;20.17;2.97;;;;;;;9.85;100.00;101277.41;5092701;28;20087;-86
2024/01/24 01:30:50;;;;;;;23.63;3.58;;;;;;;9.86;100.00;101279.09;5095987;28;20032;-86
2024/01/24 01:33:15;;;;;;;13.98;3.25;;;;;;;9.89;100.00;101300.09;5095827;28;20043;-84
2024/01/24 01:35:41;;;;;;;20.13;3.22;;;;;;;9.91;100.00;101307.97;5095702;28;20046;-84
2024/01/24 01:38:06;;;;;;;17.60;3.15;;;;;;;9.96;100.00;101340.34;5096360;28;20028;-84
2024/01/24 01:40:31;;;;;;;18.83;2.90;;;;;;;9.98;100.00;101293.22;5095903;28;20051;-84
2024/01/24 01:42:57;;;;;;;18.08;3.50;;;;;;;9.96;100.00;101292.50;5095736;28;20469;-86
2024/01/24 01:45:23;;;;;;;27.55;3.95;;;;;;;9.93;100.00;101287.41;5095258;28;20059;-84
2024/01/24 01:47:50;;;;;;;21.50;2.85;;;;;;;9.91;100.00;101311.44;5095613;28;20032;-84
2024/01/24 01:50:17;;;;;;;28.77;4.30;;;;;;;9.87;100.00;101310.03;5095521;28;20084;-85
2024/01/24 01:52:43;;;;;;;27.88;4.18;;;;;;;9.82;100.00;101299.78;5095421;28;20464;-85
2024/01/24 01:55:11;;;;;;;18.00;2.92;;;;;;;9.78;100.00;101298.31;5095393;28;20392;-84
2024/01/24 01:57:38;;;;;;;22.48;3.33;;;;;;;9.75;100.00;101300.34;5095207;28;20059;-85
2024/01/24 02:00:05;;;;;;;28.92;3.67;;;;;;;9.70;100.00;101293.63;5096353;28;20043;-85
2024/01/24 02:02:31;;;;;;;17.17;3.03;;;;;;;9.74;100.00;101304.00;5077641;28;20379;-84
2024/01/24 02:04:57;;;;;;;21.77;3.78;;;;;;;9.71;100.00;101299.78;5096818;28;20032;-85
2024/01/24 02:07:23;;;;;;;19.30;3.78;;;;;;;9.72;100.00;101288.19;5095354;28;20064;-85
2024/01/24 02:09:49;;;;;;;20.48;3.45;;;;;;;9.73;100.00;101303.13;5078069;28;20028;-85
2024/01/24 02:12:14;;;;;;;23.02;3.75;;;;;;;9.75;100.00;101329.59;5095011;28;20035;-84
2024/01/24 02:14:40;;;;;;;22.98;4.00;;;;;;;9.75;100.00;101334.91;5094923;28;20063;-80
2024/01/24 02:17:05;;;;;;;33.83;4.55;;;;;;;9.75;100.00;101332.25;5076654;28;20039;-85
2024/01/24 02:19:31;;;;;;;24.58;3.67;;;;;;;9.76;100.00;101315.34;5077203;28;20036;-84
2024/01/24 02:21:56;;;;;;;17.05;3.45;;;;;;;9.76;100.00;101316.19;5095261;28;20036;-85
2024/01/24 02:24:22;;;;;;;32.70;4.70;;;;;;;9.73;100.00;101335.03;5094429;28;20147;-84
2024/01/24 02:26:47;;;;;;;30.90;4.05;;;;;;;9.73;100.00;101324.41;5093553;28;20475;-83
2024/01/24 02:29:12;;;;;;;21.65;3.50;;;;;;;9.70;100.00;101324.63;5093163;28;20133;-81
2024/01/24 02:31:38;;;;;;;28.23;4.03;;;;;;;9.69;100.00;101331.78;5075083;28;20060;-81
2024/01/24 02:34:03;;;;;;;15.43;3.53;;;;;;;9.71;100.00;101321.03;5093187;28;20181;-83
2024/01/24 02:36:29;;;;;;;23.58;3.45;;;;;;;9.73;100.00;101319.09;5093128;28;20032;-85
2024/01/24 02:38:54;;;;;;;25.25;3.42;;;;;;;9.70;100.00;101333.47;5093180;28;20502;-82
2024/01/24 02:41:20;;;;;;;29.08;4.88;;;;;;;9.68;100.00;101327.41;5091817;28;20030;-82
2024/01/24 02:43:46;;;;;;;22.65;3.28;;;;;;;9.66;100.00;101316.09;5092918;28;20109;-84
2024/01/24 02:46:11;;;;;;;24.05;3.40;;;;;;;9.64;100.00;101317.16;5092930;28;20432;-83
2024/01/24 02:48:36;;;;;;;29.48;4.40;;;;;;;9.61;100.00;101325.38;5074046;28;20093;-83
2024/01/24 02:51:02;;;;;;;25.85;4.07;;;;;;;9.55;100.00;101333.84;5092698;28;20097;-82
2024/01/24 02:53:27;;;;;;;19.02;3.30;;;;;;;9.53;100.00;101334.78;5092792;28;20122;-84
2024/01/24 02:55:52;;;;;;;32.00;3.67;;;;;;;9.47;100.00;101342.41;5092689;28;20028;-84
2024/01/24 02:58:18;;;;;;;27.08;3.85;;;;;;;9.44;100.00;101335.50;5093373;28;20032;-83
2024/01/24 03:00:43;;;;;;;27.73;4.35;;;;;;;9.43;100.00;101344.44;5092888;28;20428;-82
2024/01/24 03:03:08;;;;;;;29.85;4.60;;;;;;;9.43;100.00;101360.38;5074272;28;20096;-84
2024/01/24 03:05:34;;;;;;;36.75;5.50;;;;;;;9.43;100.00;101319.69;5092152;28;20035;-86
2024/01/24 03:07:59;;;;;;;30.85;5.05;;;;;;;9.40;100.00;101320.78;5093132;28;20117;-82
2024/01/24 03:10:27;;;;;;;32.55;4.38;;;;;;;9.39;100.00;101345.66;5075129;28;20024;-82
2024/01/24 03:12:54;;;;;;;23.02;4.53;;;;;;;9.33;100.00;101333.69;5092523;28;20115;-83
2024/01/24 03:15:19;;;;;;;33.90;6.03;;;;;;;9.28;100.00;101340.31;5092540;28;20028;-83
2024/01/24 03:17:45;;;;;;;33.53;4.07;;;;;;;9.24;100.00;101337.06;5092192;28;20104;-83
2024/01/24 03:20:11;;;;;;;24.98;3.97;;;;;;;9.16;100.00;101344.75;5092031;28;20055;-82
2024/01/24 03:22:37;;;;;;;33.78;3.83;;;;;;;9.10;100.00;101361.16;5092109;28;20505;-81
2024/01/24 03:25:02;;;;;;;31.98;4.13;;;;;;;9.12;100.00;101356.56;5092357;28;20043;-82
2024/01/24 03:27:28;;;;;;;31.02;3.83;;;;;;;9.09;100.00;101373.59;5092157;28;20024;-81
2024/01/24 03:29:53;;;;;;;24.10;4.28;;;;;;;9.09;100.00;101351.50;5092116;28;20051;-82
2024/01/24 03:32:19;;;;;;;26.10;3.88;;;;;;;9.04;100.00;101349.19;5091932;28;20408;-82
2024/01/24 03:34:54;;;;;;;40.80;4.55;;;;;;;9.00;100.00;101353.91;5091974;28;20028;-83
2024/01/24 03:37:19;;;;;;;27.15;3.67;;;;;;;8.92;100.00;101360.75;5073972;28;20322;-83
2024/01/24 03:39:45;;;;;;;23.70;3.83;;;;;;;8.87;100.00;101355.78;5092123;28;20039;-81
2024/01/24 03:42:10;;;;;;;30.58;3.88;;;;;;;8.86;100.00;101335.50;5091558;28;20150;-82
2024/01/24 03:44:35;;;;;;;29.83;4.78;;;;;;;8.83;100.00;101341.06;5091666;28;20383;-84
2024/01/24 03:47:01;;;;;;;33.95;4.93;;;;;;;8.83;100.00;101354.31;5073157;28;20064;-81
2024/01/24 03:49:26;;;;;;;30.17;4.38;;;;;;;8.82;100.00;101374.72;5091859;28;20120;-84
2024/01/24 03:51:51;;;;;;;30.98;4.68;;;;;;;8.82;100.00;101369.41;5091167;28;20036;-81
2024/01/24 03:54:17;;;;;;;39.40;4.93;;;;;;;8.77;100.00;101371.53;5091428;28;20038;-82
2024/01/24 03:56:42;;;;;;;25.30;4.70;;;;;;;8.73;100.00;101378.06;5091459;28;20460;-81
2024/01/24 03:59:07;;;;;;;45.53;6.88;;;;;;;8.69;100.00;101334.13;5091199;28;20468;-81
2024/01/24 04:01:33;;;;;;;30.17;4.60;;;;;;;8.70;100.00;101377.41;5072906;28;20027;-83
2024/01/24 04:03:58;;;;;;;38.67;6.13;;;;;;;8.74;100.00;101373.59;5091324;28;20032;-80
2024/01/24 04:06:23;;;;;;;37.60;6.35;;;;;;;8.73;100.00;101386.03;5090920;28;20127;-81
2024/01/24 04:08:49;;;;;;;31.75;6.10;;;;;;;8.78;100.00;101388.31;5090841;28;20509;-80
2024/01/24 04:11:14;;;;;;;37.47;6.38;;;;;;;8.86;100.00;101369.19;5091135;28;20455;-82
2024/01/24 04:13:42;;;;;;;38.30;5.30;;;;;;;8.83;100.00;101363.13;5091391;28;20175;-85
2024/01/24 04:16:07;;;;;;;31.08;4.75;;;;;;;8.85;100.00;101370.13;5091206;28;20109;-84
2024/01/24 04:18:33;;;;;;;33.53;6.03;;;;;;;8.87;100.00;101362.88;5073273;28;20424;-83
2024/01/24 04:21:00;;;;;;;33.95;5.35;;;;;;;8.90;100.00;101368.81;5091192;28;20032;-82
2024/01/24 04:23:25;;;;;;;41.88;5.32;;;;;;;8.91;100.00;101378.50;5091106;28;20032;-81
2024/01/24 04:25:51;;;;;;;35.53;5.07;;;;;;;8.89;100.00;101398.13;5091219;28;20040;-81
2024/01/24 04:28:17;;;;;;;42.15;6.15;;;;;;;8.89;100.00;101390.19;5091195;28;20134;-80
2024/01/24 04:30:42;;;;;;;38.10;5.70;;;;;;;8.96;100.00;101410.81;5090882;28;20350;-83
2024/01/24 04:33:08;;;;;;;42.42;6.18;;;;;;;9.02;100.00;101396.25;5091150;28;20073;-82
2024/01/24 04:35:33;;;;;;;31.65;5.05;;;;;;;9.12;100.00;101404.34;5091068;28;20032;-82
2024/01/24 04:37:58;;;;;;;38.42;5.78;;;;;;;9.15;100.00;101401.47;5072913;28;20043;-83
2024/01/24 04:40:24;;;;;;;57.28;7.00;;;;;;;9.17;100.00;101418.97;5091394;28;20028;-80
2024/01/24 04:42:49;;;;;;;38.03;6.03;;;;;;;9.21;100.00;101458.56;5090964;28;20436;-81
2024/01/24 04:45:15;;;;;;;36.42;5.70;;;;;;;9.24;100.00;101416.72;5090771;28;20127;-81
2024/01/24 04:47:42;;;;;;;33.72;6.53;;;;;;;9.30;100.00;101439.28;5090634;28;20441;-82
2024/01/24 04:50:09;;;;;;;35.35;5.60;;;;;;;9.29;100.00;101433.16;5090935;28;20158;-82
2024/01/24 04:52:34;;;;;;;41.13;6.53;;;;;;;9.33;100.00;101431.09;5090905;28;20038;-84
2024/01/24 04:55:00;;;;;;;38.97;5.90;;;;;;;9.28;100.00;101438.56;5090712;28;20357;-82
2024/01/24 04:57:25;;;;;;;32.28;4.68;;;;;;;9.25;100.00;101420.22;5091102;28;20032;-81
2024/01/24 04:59:51;;;;;;;43.67;6.70;;;;;;;9.17;100.00;101432.25;5072796;28;20395;-81
2024/01/24 05:02:17;;;;;;;36.00;5.90;;;;;;;9.12;100.00;101439.75;5072669;28;20028;-80
2024/01/24 05:04:42;;;;;;;46.35;6.70;;;;;;;8.98;100.00;101427.47;5092809;28;20043;-81
2024/01/24 05:07:08;;;;;;;42.22;5.78;;;;;;;8.89;100.00;101440.59;5094753;28;20423;-81
2024/01/24 05:09:33;;;;;;;43.13;6.82;;;;;;;8.80;100.00;101439.47;5095187;28;20040;-83
2024/01/24 05:11:59;;;;;;;40.33;5.43;;;;;;;8.71;100.00;101429.53;5094703;28;20119;-82
2024/01/24 05:14:24;;;;;;;39.85;6.82;;;;;;;8.61;100.00;101435.53;5094836;28;20103;-81
2024/01/24 05:16:49;;;;;;;49.90;7.22;;;;;;;8.51;100.00;101436.28;5094871;28;20417;-81
2024/01/24 05:19:15;;;;;;;51.75;7.97;;;;;;;8.43;100.00;101463.31;5094449;28;20036;-87
2024/01/24 05:21:41;;;;;;;48.17;6.85;;;;;;;8.40;100.00;101451.13;5094241;28;20040;-81
2024/01/24 05:24:08;;;;;;;57.13;7.88;;;;;;;8.41;100.00;101441.38;5094342;28;20036;-81
2024/01/24 05:26:35;;;;;;;41.92;7.40;;;;;;;8.36;100.00;101443.50;5094347;28;20085;-82
2024/01/24 05:29:00;;;;;;;56.78;7.18;;;;;;;8.31;100.00;101459.72;5094461;28;20024;-80
2024/01/24 05:31:26;;;;;;;47.17;8.27;;;;;;;8.31;100.00;101430.56;5094509;28;20478;-82
2024/01/24 05:33:51;;;;;;;49.10;7.20;;;;;;;8.40;100.00;101479.44;5094276;28;20080;-81
2024/01/24 05:36:16;;;;;;;57.88;7.75;;;;;;;8.41;100.00;101450.16;5094148;28;20039;-83
2024/01/24 05:38:42;;;;;;;47.20;6.38;;;;;;;8.34;100.00;101504.59;5093967;28;20036;-83
2024/01/24 05:41:08;;;;;;;49.70;7.82;;;;;;;8.42;100.00;101462.47;5094344;28;20085;-83
2024/01/24 05:43:33;;;;;;;46.22;6.43;;;;;;;8.49;100.00;101502.69;5094128;28;20035;-81
2024/01/24 05:45:59;;;;;;;50.40;7.95;;;;;;;8.44;100.00;101518.94;5075775;28;20069;-80
2024/01/24 05:48:24;;;;;;;45.42;7.45;;;;;;;8.42;100.00;101518.16;5075516;28;20036;-83
2024/01/24 05:50:49;;;;;;;45.33;7.60;;;;;;;8.36;100.00;101525.69;5093672;28;20035;-82
2024/01/24 05:53:15;;;;;;;44.17;8.05;;;;;;;8.27;100.00;101522.75;5093856;28;20032;-82
2024/01/24 05:55:40;;;;;;;51.05;7.20;;;;;;;8.21;100.00;101531.13;5093834;28;20379;-81
2024/01/24 05:58:05;;;;;;;54.00;7.10;;;;;;;8.12;100.00;101555.59;5093911;28;20123;-80
2024/01/24 06:00:31;;;;;;;54.15;8.70;;;;;;;8.12;100.00;101548.53;5075426;28;20036;-82
2024/01/24 06:02:56;;;;;;;54.97;7.28;;;;;;;8.18;100.00;101565.81;5093352;28;20098;-81
2024/01/24 06:05:22;;;;;;;40.95;6.32;;;;;;;8.17;100.00;101555.31;5075653;28;20036;-83
2024/01/24 06:07:50;;;;;;;67.40;8.40;;;;;;;8.11;100.00;101565.38;5093439;28;20052;-83
2024/01/24 06:10:16;;;;;;;46.75;8.10;;;;;;;8.14;100.00;101580.22;5093383;28;20420;-81
2024/01/24 06:12:41;;;;;;;57.88;7.93;;;;;;;8.13;100.00;101567.91;5093545;28;20031;-80
2024/01/24 06:15:08;;;;;;;46.58;7.07;;;;;;;8.19;100.00;101571.94;5092976;28;20024;-80
2024/01/24 06:17:33;;;;;;;51.00;8.00;;;;;;;8.15;100.00;101612.88;5093802;28;20036;-80
2024/01/24 06:19:59;;;;;;;45.97;7.82;;;;;;;8.24;100.00;101581.28;5093824;28;20082;-82
2024/01/24 06:22:25;;;;;;;57.33;8.27;;;;;;;8.22;100.00;101577.03;5093074;28;20028;-85
2024/01/24 06:24:51;;;;;;;47.65;6.85;;;;;;;8.21;100.00;101567.38;5093697;28;20031;-80
2024/01/24 06:27:16;;;;;;;45.33;7.13;;;;;;;8.18;100.00;101581.72;5092871;28;20107;-81
2024/01/24 06:29:41;;;;;;;42.92;7.93;;;;;;;8.20;100.00;101581.63;5093167;28;20043;-82
2024/01/24 06:32:07;;;;;;;46.00;7.60;;;;;;;8.19;100.00;101604.59;5092862;28;20059;-82
2024/01/24 06:34:32;;;;;;;47.30;6.80;;;;;;;8.17;100.00;101624.25;5092991;28;20033;-85
2024/01/24 06:36:58;;;;;;;53.83;7.45;;;;;;;8.15;100.00;101629.66;5092430;28;20032;-85
2024/01/24 06:39:23;;;;;;;57.08;8.95;;;;;;;8.14;100.00;101632.41;5074652;28;20028;-85
2024/01/24 06:41:49;;;;;;;59.38;7.50;;;;;;;8.19;100.00;101639.06;5092829;28;20128;-81
2024/01/24 06:44:14;;;;;;;50.08;8.45;;;;;;;8.12;100.00;101640.44;5093080;28;20248;-82
2024/01/24 06:46:44;;;;;;;48.08;8.52;;;;;;;8.10;100.00;101661.75;5092674;28;20124;-82
2024/01/24 06:49:12;;;;;;;71.32;10.55;;;;;;;8.12;100.00;101649.25;5092392;28;20032;-83
2024/01/24 06:51:38;;;;;;;58.03;8.55;;;;;;;8.10;100.00;101666.19;5092483;28;20024;-81
2024/01/24 06:54:04;;;;;;;43.60;7.57;;;;;;;8.10;100.00;101631.75;5092159;28;20031;-80
2024/01/24 06:56:30;;;;;;;46.97;8.35;;;;;;;8.09;100.00;101644.16;5074223;28;20031;-85
2024/01/24 06:58:55;;;;;;;57.75;8.32;;;;;;;8.10;100.00;101621.13;5092396;28;20028;-82
2024/01/24 07:01:21;;;;;;;52.65;7.25;;;;;;;8.03;100.00;101625.16;5092393;28;20496;-83
2024/01/24 07:03:46;;;;;;;51.25;8.15;;;;;;;8.03;100.00;101630.44;5092249;28;20028;-80
2024/01/24 07:06:11;;;;;;;50.05;8.40;;;;;;;8.01;100.00;101654.41;5092088;28;20064;-81
2024/01/24 07:08:40;;;;;;;57.42;7.60;;;;;;;8.00;100.00;101635.97;5091918;28;20079;-83
2024/01/24 07:11:07;;;;;;;44.25;7.15;;;;;;;7.94;100.00;101631.91;5092304;28;20055;-82
2024/01/24 07:13:32;;;;;;;55.47;7.15;;;;;;;7.93;100.00;101665.53;5092115;28;20032;-81
2024/01/24 07:16:00;;;;;;;46.60;7.63;;;;;;;7.93;100.00;101657.56;5092305;28;20035;-87
2024/01/24 07:18:26;;;;;;;44.17;7.28;;;;;;;7.93;100.00;101689.38;5074243;28;20086;-85
2024/01/24 07:20:51;;;;;;;52.45;7.55;;;;;;;7.93;100.00;101678.78;5092637;28;20036;-84
2024/01/24 07:23:17;;;;;;;58.45;8.45;;;;;;;7.95;100.00;101686.63;5092361;28;20046;-80
2024/01/24 07:25:42;;;;;;;51.40;8.23;;;;;;;7.98;100.00;101686.41;5091666;28;20043;-85
2024/01/24 07:28:08;;;;;;;56.55;7.50;;;;;;;8.02;100.00;101703.81;5091795;28;20157;-83
2024/01/24 07:30:33;;;;;;;56.55;7.38;;;;;;;7.98;100.00;101702.31;5091899;28;20391;-85
2024/01/24 07:32:59;;;;;;;51.67;7.72;;;;;;;7.99;100.00;101704.03;5092026;28;20124;-86
2024/01/24 07:35:25;;;;;;;56.13;7.82;;;;;;;8.05;100.00;101735.44;5073429;28;20115;-83
2024/01/24 07:37:51;;;;;;;58.90;7.95;;;;;;;8.02;100.00;101732.13;5092049;28;20079;-83
2024/01/24 07:40:16;;;;;;;51.33;7.32;;;;;;;7.95;100.00;101750.22;5092059;28;20024;-83
2024/01/24 07:42:42;;;;;;;58.78;7.80;;;;;;;8.00;100.00;101753.44;5091780;28;20028;-86
2024/01/24 07:45:09;;;;;;;52.30;7.47;;;;;;;8.03;100.00;101749.72;5092031;28;20035;-86
2024/01/24 07:47:34;;;;;;;59.20;8.88;;;;;;;7.94;100.00;101775.88;5091464;28;20071;-82
2024/01/24 07:50:00;;;;;;;55.97;7.53;;;;;;;7.88;100.00;101770.13;5091374;28;20494;-82
2024/01/24 07:52:25;;;;;;;60.25;9.98;;;;;;;7.82;100.00;101770.50;5091944;28;20129;-79
2024/01/24 07:54:51;;;;;;;46.45;7.15;;;;;;;7.88;100.00;101764.81;5091875;28;20028;-83
2024/01/24 07:57:16;;;;;;;64.47;9.68;;;;;;;7.96;100.00;101765.19;5072972;28;20472;-81
2024/01/24 07:59:41;;;;;;;59.65;9.05;;;;;;;7.95;100.00;101787.31;5091235;28;20036;-83
2024/01/24 08:02:07;;;;;;;44.42;7.15;;;;;;;7.98;100.00;101781.81;5091643;28;20044;-82
2024/01/24 08:04:32;;;;;;;57.88;9.13;;;;;;;7.99;100.00;101764.16;5091369;28;20077;-85
2024/01/24 08:06:58;;;;;;;46.80;7.28;;;;;;;7.98;100.00;101775.69;5073233;28;20120;-86
2024/01/24 08:09:23;;;;;;;47.65;7.47;;;;;;;7.98;100.00;101799.53;5091682;28;20052;-83
2024/01/24 08:11:48;;;;;;;51.90;7.05;;;;;;;7.99;100.00;101798.59;5091174;28;20036;-83
2024/01/24 08:14:14;;;;;;;54.33;8.25;;;;;;;8.04;100.00;101794.69;5091449;28;20069;-81
2024/01/24 08:16:39;;;;;;;54.40;9.32;;;;;;;8.10;100.00;101815.47;5091268;28;20036;-81
2024/01/24 08:19:04;;;;;;;54.22;6.93;;;;;;;8.13;100.00;101798.53;5091499;28;20073;-82
2024/01/24 08:21:30;;;;;;;46.08;7.70;;;;;;;8.14;100.00;101792.28;5091405;28;20456;-83
2024/01/24 08:23:55;;;;;;;52.03;7.85;;;;;;;8.17;100.00;101808.00;5091378;28;20332;-84
2024/01/24 08:26:21;;;;;;;43.53;6.20;;;;;;;8.21;100.00;101800.69;5091102;28;20040;-83
2024/01/24 08:28:47;;;;;;;49.63;8.13;;;;;;;8.25;100.00;101841.97;5073034;28;20067;-84
2024/01/24 08:31:13;;;;;;;44.72;6.68;;;;;;;8.28;100.00;101831.16;5091488;28;20106;-87
2024/01/24 08:33:39;;;;;;;49.35;7.47;;;;;;;8.25;100.00;101834.00;5090989;28;20028;-82
2024/01/24 08:36:05;;;;;;;46.33;7.35;;;;;;;8.28;100.00;101834.69;5091259;28;20028;-88
2024/01/24 08:38:30;;;;;;;55.35;7.28;;;;;;;8.23;100.00;101834.09;5093082;28;20115;-86
2024/01/24 08:40:55;;;;;;;45.78;7.78;;;;;;;8.24;100.00;101857.03;5095271;28;20028;-85
2024/01/24 08:43:21;;;;;;;48.65;8.73;;;;;;;8.23;100.00;101860.63;5095301;28;20413;-82
2024/01/24 08:45:48;;;;;;;54.30;7.35;;;;;;;8.28;100.00;101842.63;5095039;28;20476;-82
2024/01/24 08:48:14;;;;;;;47.63;8.25;;;;;;;8.27;100.00;101861.25;5077400;28;20032;-84
2024/01/24 08:50:40;;;;;;;58.20;8.57;;;;;;;8.28;100.00;101850.59;5095280;28;20043;-81
2024/01/24 08:53:05;;;;;;;50.58;8.32;;;;;;;8.32;100.00;101901.59;5094967;28;20474;-83
2024/01/24 08:55:31;;;;;;;59.75;8.50;;;;;;;8.36;100.00;101887.22;5095117;28;20028;-79
2024/01/24 08:57:57;;;;;;;64.40;9.95;;;;;;;8.38;100.00;101892.41;5094862;28;20024;-79
2024/01/24 09:00:23;;;;;;;49.20;7.80;;;;;;;8.36;100.00;101889.88;5094816;28;20098;-80
2024/01/24 09:02:48;;;;;;;52.88;8.00;;;;;;;8.41;100.00;101889.56;5094838;28;20437;-78
2024/01/24 09:05:15;;;;;;;57.97;8.30;;;;;;;8.37;100.00;101888.06;5094748;28;20476;-80
2024/01/24 09:07:41;;;;;;;42.58;6.85;;;;;;;8.35;100.00;101898.75;5094671;28;20087;-81
2024/01/24 09:10:08;;;;;;;52.05;6.65;;;;;;;8.33;100.00;101908.63;5094828;28;20036;-80
2024/01/24 09:12:34;;;;;;;54.50;8.77;;;;;;;8.33;100.00;101898.00;5076310;28;20035;-87
2024/01/24 09:14:59;;;;;;;50.63;8.25;;;;;;;8.35;100.00;101943.00;5094544;28;20036;-81
2024/01/24 09:17:25;;;;;;;52.10;7.30;;;;;;;8.38;100.00;101934.84;5076193;28;20062;-81
2024/01/24 09:19:50;;;;;;;55.97;10.05;;;;;;;8.36;100.00;101944.69;5094698;28;20028;-82
2024/01/24 09:22:16;;;;;;;57.58;8.25;;;;;;;8.36;100.00;101945.56;5094572;28;20123;-80
2024/01/24 09:24:42;;;;;;;59.17;9.07;;;;;;;8.32;100.00;101962.59;5094391;28;20453;-81
2024/01/24 09:27:07;;;;;;;47.45;8.10;;;;;;;8.36;100.00;101957.94;5075974;28;20047;-82
2024/01/24 09:29:32;;;;;;;44.95;7.38;;;;;;;8.41;100.00;101948.75;5094625;28;20459;-83
2024/01/24 09:31:58;;;;;;;71.22;9.45;;;;;;;8.48;100.00;101943.94;5075877;28;20157;-82
2024/01/24 09:34:26;;;;;;;45.85;7.18;;;;;;;8.51;100.00;101946.41;5094418;28;20112;-83
2024/01/24 09:36:55;;;;;;;55.10;7.57;;;;;;;8.52;100.00;101956.03;5094271;28;20036;-82
2024/01/24 09:39:21;;;;;;;50.63;7.40;;;;;;;8.49;100.00;101958.06;5094460;28;20107;-82
2024/01/24 09:41:50;;;;;;;53.55;8.02;;;;;;;8.58;100.00;101976.03;5093848;28;20035;-84
2024/01/24 09:44:16;;;;;;;64.50;10.38;;;;;;;8.62;100.00;101973.06;5094311;28;20032;-83
2024/01/24 09:46:42;;;;;;;52.10;8.20;;;;;;;8.71;100.00;101968.97;5093835;28;20039;-80
2024/01/24 09:49:09;;;;;;;56.78;8.77;;;;;;;8.77;100.00;101992.47;5094251;28;20028;-80
2024/01/24 09:51:35;;;;;;;53.92;8.07;;;;;;;8.88;100.00;101986.44;5075003;28;20058;-82
2024/01/24 09:54:08;;;;;;;54.92;7.82;;;;;;;8.99;100.00;101996.41;5093685;28;20036;-81
2024/01/24 09:56:38;;;;;;;50.28;6.85;;;;;;;8.98;100.00;102014.09;5093974;28;20074;-80
2024/01/24 09:59:08;;;;;;;55.30;7.70;;;;;;;9.07;100.00;101996.72;5093898;28;20032;-83
2024/01/24 10:01:35;;;;;;;52.25;8.05;;;;;;;9.13;100.00;102020.22;5093939;28;20032;-83
2024/01/24 10:04:01;;;;;;;46.65;7.40;;;;;;;9.12;100.00;102020.31;5093710;28;20444;-82
2024/01/24 10:06:29;;;;;;;45.13;7.88;;;;;;;9.25;100.00;102026.53;5093726;28;20028;-81
2024/01/24 10:08:56;;;;;;;45.47;7.70;;;;;;;9.31;100.00;102028.78;5075045;28;20048;-78
2024/01/24 10:11:23;;;;;;;60.10;7.82;;;;;;;9.33;100.00;102052.56;5093668;28;20036;-82
2024/01/24 10:13:49;;;;;;;52.10;8.18;;;;;;;9.40;100.00;102053.88;5093575;28;20108;-81
2024/01/24 10:16:14;;;;;;;46.63;7.57;;;;;;;9.46;100.00;102055.28;5093744;28;20060;-83
2024/01/24 10:18:41;;;;;;;48.92;8.43;;;;;;;9.39;100.00;102076.09;5074746;28;20440;-79
2024/01/24 10:21:07;;;;;;;50.63;9.07;;;;;;;9.23;100.00;102057.66;5093241;28;20512;-84
2024/01/24 10:23:33;;;;;;;64.15;8.50;;;;;;;9.26;100.00;102065.41;5092835;28;20111;-83
2024/01/24 10:25:59;;;;;;;45.42;8.05;;;;;;;9.15;100.00;102074.09;5093088;28;20032;-82
2024/01/24 10:28:25;;;;;;;45.03;7.25;;;;;;;9.04;100.00;102092.50;5092958;28;20191;-84
2024/01/24 10:30:51;;;;;;;41.95;6.90;;;;;;;9.04;100.00;102076.56;5093086;28;20426;-83
2024/01/24 10:33:17;;;;;;;52.08;6.90;;;;;;;9.03;100.00;102105.88;5093304;28;20039;-81
2024/01/24 10:35:43;;;;;;;60.13;8.23;;;;;;;9.08;100.00;102101.97;5092665;28;20127;-83
2024/01/24 10:38:12;;;;;;;66.90;9.55;;;;;;;9.13;100.00;102088.41;5092842;28;20190;-85
2024/01/24 10:40:40;;;;;;;48.50;7.80;;;;;;;9.29;100.00;102098.91;5092819;28;20030;-83
2024/01/24 10:43:12;;;;;;;52.13;7.10;;;;;;;9.41;100.00;102102.56;5092871;28;20036;-84
2024/01/24 10:45:40;;;;;;;;;;;;;;;9.35;100.00;102107.31;5093060;28;20101;-83
2024/01/24 10:48:08;;;;;;;59.72;7.95;;;;;;;9.34;100.00;102118.03;5092317;28;20441;-83
2024/01/24 10:50:34;;;;;;;49.28;8.65;;;;;;;9.23;100.00;102102.81;5092585;28;20060;-82
2024/01/24 10:53:01;;;;;;;47.63;7.30;;;;;;;9.28;100.00;102089.22;5074083;28;20450;-85
2024/01/24 10:55:28;;;;;;;43.55;7.13;;;;;;;9.28;100.00;102108.66;5092943;28;20028;-79
2024/01/24 10:57:53;;;;;;;46.47;7.38;;;;;;;9.28;100.00;102103.34;5074011;28;20452;-82
2024/01/24 11:00:22;;;;;;;49.72;7.63;;;;;;;9.22;100.00;102111.72;5092694;28;20039;-81
2024/01/24 11:02:48;;;;;;;49.75;7.63;;;;;;;9.30;100.00;102140.41;5091108;28;20050;-81
2024/01/24 11:05:43;;;;;;;52.47;8.35;;;;;;;9.27;100.00;102143.28;5073839;28;20028;-81
2024/01/24 11:08:16;;;;;;;43.08;7.35;;;;;;;9.32;100.00;102141.19;5080552;28;20028;-81
2024/01/24 11:10:43;;;;;;;43.67;7.68;;;;;;;9.38;100.00;102131.97;5092371;28;20028;-84